sensor_id;sensor_type;location;lat;lon;timestamp;P1;durP1;ratioP1;P2;durP2;ratioP2
11010;SDS011;5558;42.702;23.178;2022-12-29T00:02:25;36.77;;;28.53;;
11010;SDS011;5558;42.702;23.178;2022-12-29T00:04:52;31.53;;;24.70;;
11010;SDS011;5558;42.702;23.178;2022-12-29T00:07:19;28.67;;;22.63;;
11010;SDS011;5558;42.702;23.178;2022-12-29T00:09:47;28.63;;;23.40;;
11010;SDS011;5558;42.702;23.178;2022-12-29T00:12:13;27.43;;;22.17;;
11010;SDS011;5558;42.702;23.178;2022-12-29T00:14:40;27.33;;;22.20;;
11010;SDS011;5558;42.702;23.178;2022-12-29T00:17:24;29.30;;;22.93;;
11010;SDS011;5558;42.702;23.178;2022-12-29T00:19:51;27.77;;;22.77;;
11010;SDS011;5558;42.702;23.178;2022-12-29T00:22:35;38.53;;;28.30;;
11010;SDS011;5558;42.702;23.178;2022-12-29T00:25:20;31.80;;;24.47;;
11010;SDS011;5558;42.702;23.178;2022-12-29T00:28:07;30.33;;;24.13;;
11010;SDS011;5558;42.702;23.178;2022-12-29T00:30:52;28.47;;;23.33;;
11010;SDS011;5558;42.702;23.178;2022-12-29T00:33:36;27.07;;;23.27;;
11010;SDS011;5558;42.702;23.178;2022-12-29T00:36:21;32.10;;;25.37;;
11010;SDS011;5558;42.702;23.178;2022-12-29T00:38:54;38.87;;;27.90;;
11010;SDS011;5558;42.702;23.178;2022-12-29T00:41:42;35.53;;;27.30;;
11010;SDS011;5558;42.702;23.178;2022-12-29T00:44:27;36.43;;;28.90;;
11010;SDS011;5558;42.702;23.178;2022-12-29T00:46:54;62.13;;;45.03;;
11010;SDS011;5558;42.702;23.178;2022-12-29T00:49:20;60.13;;;43.77;;
11010;SDS011;5558;42.702;23.178;2022-12-29T00:52:00;36.43;;;29.07;;
11010;SDS011;5558;42.702;23.178;2022-12-29T00:54:28;26.13;;;21.77;;
11010;SDS011;5558;42.702;23.178;2022-12-29T00:56:57;25.63;;;21.37;;
11010;SDS011;5558;42.702;23.178;2022-12-29T00:59:24;25.80;;;21.63;;
11010;SDS011;5558;42.702;23.178;2022-12-29T01:01:51;25.07;;;20.90;;
11010;SDS011;5558;42.702;23.178;2022-12-29T01:04:19;25.90;;;20.93;;
11010;SDS011;5558;42.702;23.178;2022-12-29T01:06:47;27.10;;;21.53;;
11010;SDS011;5558;42.702;23.178;2022-12-29T01:09:15;25.07;;;20.27;;
11010;SDS011;5558;42.702;23.178;2022-12-29T01:12:01;26.00;;;22.23;;
11010;SDS011;5558;42.702;23.178;2022-12-29T01:14:28;25.87;;;21.57;;
11010;SDS011;5558;42.702;23.178;2022-12-29T01:16:55;28.60;;;22.77;;
11010;SDS011;5558;42.702;23.178;2022-12-29T01:19:22;25.60;;;21.57;;
11010;SDS011;5558;42.702;23.178;2022-12-29T01:21:49;25.00;;;21.10;;
11010;SDS011;5558;42.702;23.178;2022-12-29T01:24:16;23.77;;;20.50;;
11010;SDS011;5558;42.702;23.178;2022-12-29T01:26:44;28.43;;;24.30;;
11010;SDS011;5558;42.702;23.178;2022-12-29T01:29:13;27.47;;;22.40;;
11010;SDS011;5558;42.702;23.178;2022-12-29T01:31:39;25.33;;;20.93;;
11010;SDS011;5558;42.702;23.178;2022-12-29T01:34:06;23.23;;;19.90;;
11010;SDS011;5558;42.702;23.178;2022-12-29T01:36:33;24.13;;;20.37;;
11010;SDS011;5558;42.702;23.178;2022-12-29T01:39:00;24.73;;;20.53;;
11010;SDS011;5558;42.702;23.178;2022-12-29T01:41:27;25.00;;;20.27;;
11010;SDS011;5558;42.702;23.178;2022-12-29T01:43:55;24.30;;;19.67;;
11010;SDS011;5558;42.702;23.178;2022-12-29T01:46:26;23.83;;;19.83;;
11010;SDS011;5558;42.702;23.178;2022-12-29T01:48:58;24.63;;;21.10;;
11010;SDS011;5558;42.702;23.178;2022-12-29T01:51:29;24.97;;;20.80;;
11010;SDS011;5558;42.702;23.178;2022-12-29T01:54:00;22.30;;;19.57;;
11010;SDS011;5558;42.702;23.178;2022-12-29T01:56:32;22.83;;;18.87;;
11010;SDS011;5558;42.702;23.178;2022-12-29T01:59:00;26.53;;;21.53;;
11010;SDS011;5558;42.702;23.178;2022-12-29T02:01:31;24.17;;;20.97;;
11010;SDS011;5558;42.702;23.178;2022-12-29T02:03:58;24.10;;;19.83;;
11010;SDS011;5558;42.702;23.178;2022-12-29T02:06:26;26.80;;;22.10;;
11010;SDS011;5558;42.702;23.178;2022-12-29T02:08:57;25.57;;;21.30;;
11010;SDS011;5558;42.702;23.178;2022-12-29T02:11:25;25.17;;;21.67;;
11010;SDS011;5558;42.702;23.178;2022-12-29T02:13:54;26.00;;;21.13;;
11010;SDS011;5558;42.702;23.178;2022-12-29T02:16:27;27.30;;;23.13;;
11010;SDS011;5558;42.702;23.178;2022-12-29T02:19:19;27.37;;;21.70;;
11010;SDS011;5558;42.702;23.178;2022-12-29T02:22:10;26.10;;;21.70;;
11010;SDS011;5558;42.702;23.178;2022-12-29T02:28:09;23.03;;;19.23;;
11010;SDS011;5558;42.702;23.178;2022-12-29T02:30:56;23.57;;;19.33;;
11010;SDS011;5558;42.702;23.178;2022-12-29T02:33:33;21.23;;;18.00;;
11010;SDS011;5558;42.702;23.178;2022-12-29T02:36:10;26.83;;;21.57;;
11010;SDS011;5558;42.702;23.178;2022-12-29T02:38:48;26.03;;;20.77;;
11010;SDS011;5558;42.702;23.178;2022-12-29T02:41:23;24.03;;;19.20;;
11010;SDS011;5558;42.702;23.178;2022-12-29T02:43:59;21.60;;;18.17;;
11010;SDS011;5558;42.702;23.178;2022-12-29T02:46:34;22.93;;;18.90;;
11010;SDS011;5558;42.702;23.178;2022-12-29T02:49:05;21.50;;;18.20;;
11010;SDS011;5558;42.702;23.178;2022-12-29T02:51:40;20.20;;;17.87;;
11010;SDS011;5558;42.702;23.178;2022-12-29T02:54:13;23.20;;;19.23;;
11010;SDS011;5558;42.702;23.178;2022-12-29T02:57:00;23.73;;;19.43;;
11010;SDS011;5558;42.702;23.178;2022-12-29T02:59:26;22.70;;;19.23;;
11010;SDS011;5558;42.702;23.178;2022-12-29T03:02:06;24.70;;;20.00;;
11010;SDS011;5558;42.702;23.178;2022-12-29T03:05:00;23.77;;;19.30;;
11010;SDS011;5558;42.702;23.178;2022-12-29T03:07:36;23.23;;;19.20;;
11010;SDS011;5558;42.702;23.178;2022-12-29T03:10:14;25.50;;;20.63;;
11010;SDS011;5558;42.702;23.178;2022-12-29T03:12:52;25.97;;;19.73;;
11010;SDS011;5558;42.702;23.178;2022-12-29T03:15:41;25.67;;;20.43;;
11010;SDS011;5558;42.702;23.178;2022-12-29T03:18:29;26.80;;;19.83;;
11010;SDS011;5558;42.702;23.178;2022-12-29T03:21:08;25.33;;;19.80;;
11010;SDS011;5558;42.702;23.178;2022-12-29T03:23:38;24.90;;;21.03;;
11010;SDS011;5558;42.702;23.178;2022-12-29T03:26:09;25.13;;;20.63;;
11010;SDS011;5558;42.702;23.178;2022-12-29T03:28:38;22.67;;;19.17;;
11010;SDS011;5558;42.702;23.178;2022-12-29T03:31:09;25.40;;;20.83;;
11010;SDS011;5558;42.702;23.178;2022-12-29T03:33:39;23.43;;;20.27;;
11010;SDS011;5558;42.702;23.178;2022-12-29T03:36:10;23.83;;;19.40;;
11010;SDS011;5558;42.702;23.178;2022-12-29T03:38:43;23.33;;;19.83;;
11010;SDS011;5558;42.702;23.178;2022-12-29T03:41:14;24.23;;;19.50;;
11010;SDS011;5558;42.702;23.178;2022-12-29T03:43:45;22.67;;;19.03;;
11010;SDS011;5558;42.702;23.178;2022-12-29T03:46:11;23.23;;;19.00;;
11010;SDS011;5558;42.702;23.178;2022-12-29T03:48:40;23.63;;;19.83;;
11010;SDS011;5558;42.702;23.178;2022-12-29T03:51:06;24.67;;;21.37;;
11010;SDS011;5558;42.702;23.178;2022-12-29T03:53:33;25.17;;;21.80;;
11010;SDS011;5558;42.702;23.178;2022-12-29T03:56:00;23.07;;;20.03;;
11010;SDS011;5558;42.702;23.178;2022-12-29T03:58:26;22.00;;;18.70;;
11010;SDS011;5558;42.702;23.178;2022-12-29T04:00:53;22.93;;;18.77;;
11010;SDS011;5558;42.702;23.178;2022-12-29T04:03:20;21.63;;;18.63;;
11010;SDS011;5558;42.702;23.178;2022-12-29T04:05:48;20.60;;;17.47;;
11010;SDS011;5558;42.702;23.178;2022-12-29T04:08:15;21.10;;;17.70;;
11010;SDS011;5558;42.702;23.178;2022-12-29T04:10:41;22.60;;;17.70;;
11010;SDS011;5558;42.702;23.178;2022-12-29T04:13:08;20.57;;;17.50;;
11010;SDS011;5558;42.702;23.178;2022-12-29T04:15:35;22.03;;;18.83;;
11010;SDS011;5558;42.702;23.178;2022-12-29T04:18:02;21.60;;;18.27;;
11010;SDS011;5558;42.702;23.178;2022-12-29T04:20:29;28.53;;;23.40;;
11010;SDS011;5558;42.702;23.178;2022-12-29T04:23:15;29.33;;;23.60;;
11010;SDS011;5558;42.702;23.178;2022-12-29T04:25:44;33.87;;;27.70;;
11010;SDS011;5558;42.702;23.178;2022-12-29T04:28:12;31.23;;;25.27;;
11010;SDS011;5558;42.702;23.178;2022-12-29T04:30:38;34.17;;;27.60;;
11010;SDS011;5558;42.702;23.178;2022-12-29T04:33:05;32.27;;;26.77;;
11010;SDS011;5558;42.702;23.178;2022-12-29T04:35:32;32.07;;;25.63;;
11010;SDS011;5558;42.702;23.178;2022-12-29T04:37:59;32.50;;;25.83;;
11010;SDS011;5558;42.702;23.178;2022-12-29T04:40:27;31.73;;;26.23;;
11010;SDS011;5558;42.702;23.178;2022-12-29T04:42:53;28.93;;;23.43;;
11010;SDS011;5558;42.702;23.178;2022-12-29T04:45:20;29.40;;;24.80;;
11010;SDS011;5558;42.702;23.178;2022-12-29T04:47:47;30.20;;;24.87;;
11010;SDS011;5558;42.702;23.178;2022-12-29T04:50:13;29.77;;;23.67;;
11010;SDS011;5558;42.702;23.178;2022-12-29T04:52:40;30.63;;;24.10;;
11010;SDS011;5558;42.702;23.178;2022-12-29T04:55:07;34.47;;;27.63;;
11010;SDS011;5558;42.702;23.178;2022-12-29T04:57:35;32.37;;;26.50;;
11010;SDS011;5558;42.702;23.178;2022-12-29T05:00:03;34.27;;;27.53;;
11010;SDS011;5558;42.702;23.178;2022-12-29T05:02:30;33.33;;;26.87;;
11010;SDS011;5558;42.702;23.178;2022-12-29T05:04:57;24.97;;;20.80;;
11010;SDS011;5558;42.702;23.178;2022-12-29T05:07:23;23.67;;;20.07;;
11010;SDS011;5558;42.702;23.178;2022-12-29T05:09:51;24.37;;;21.03;;
11010;SDS011;5558;42.702;23.178;2022-12-29T05:12:17;26.87;;;22.30;;
11010;SDS011;5558;42.702;23.178;2022-12-29T05:14:46;30.47;;;26.00;;
11010;SDS011;5558;42.702;23.178;2022-12-29T05:20:34;26.00;;;22.23;;
11010;SDS011;5558;42.702;23.178;2022-12-29T05:23:01;25.17;;;22.00;;
11010;SDS011;5558;42.702;23.178;2022-12-29T05:25:28;25.13;;;21.73;;
11010;SDS011;5558;42.702;23.178;2022-12-29T05:27:54;26.43;;;22.43;;
11010;SDS011;5558;42.702;23.178;2022-12-29T05:30:22;29.20;;;24.63;;
11010;SDS011;5558;42.702;23.178;2022-12-29T05:32:49;28.80;;;23.57;;
11010;SDS011;5558;42.702;23.178;2022-12-29T05:35:16;28.10;;;23.23;;
11010;SDS011;5558;42.702;23.178;2022-12-29T05:37:43;31.20;;;25.33;;
11010;SDS011;5558;42.702;23.178;2022-12-29T05:40:10;29.60;;;23.90;;
11010;SDS011;5558;42.702;23.178;2022-12-29T05:42:37;32.00;;;25.33;;
11010;SDS011;5558;42.702;23.178;2022-12-29T05:45:04;29.10;;;23.87;;
11010;SDS011;5558;42.702;23.178;2022-12-29T05:47:33;29.13;;;23.40;;
11010;SDS011;5558;42.702;23.178;2022-12-29T05:50:00;33.27;;;26.50;;
11010;SDS011;5558;42.702;23.178;2022-12-29T05:52:42;32.93;;;25.73;;
11010;SDS011;5558;42.702;23.178;2022-12-29T05:55:09;32.17;;;25.87;;
11010;SDS011;5558;42.702;23.178;2022-12-29T05:57:37;28.97;;;23.67;;
11010;SDS011;5558;42.702;23.178;2022-12-29T06:00:04;27.20;;;23.13;;
11010;SDS011;5558;42.702;23.178;2022-12-29T06:02:33;26.80;;;22.70;;
11010;SDS011;5558;42.702;23.178;2022-12-29T06:05:00;26.83;;;22.23;;
11010;SDS011;5558;42.702;23.178;2022-12-29T06:07:27;26.27;;;22.33;;
11010;SDS011;5558;42.702;23.178;2022-12-29T06:09:53;25.50;;;21.73;;
11010;SDS011;5558;42.702;23.178;2022-12-29T06:12:20;25.20;;;21.33;;
11010;SDS011;5558;42.702;23.178;2022-12-29T06:14:47;23.23;;;20.77;;
11010;SDS011;5558;42.702;23.178;2022-12-29T06:17:13;33.27;;;24.73;;
11010;SDS011;5558;42.702;23.178;2022-12-29T06:19:41;33.17;;;24.83;;
11010;SDS011;5558;42.702;23.178;2022-12-29T06:22:09;24.40;;;20.80;;
11010;SDS011;5558;42.702;23.178;2022-12-29T06:24:37;24.20;;;20.13;;
11010;SDS011;5558;42.702;23.178;2022-12-29T06:27:03;29.67;;;23.03;;
11010;SDS011;5558;42.702;23.178;2022-12-29T06:29:30;35.73;;;28.67;;
11010;SDS011;5558;42.702;23.178;2022-12-29T06:31:57;32.80;;;27.07;;
11010;SDS011;5558;42.702;23.178;2022-12-29T06:34:24;24.83;;;21.00;;
11010;SDS011;5558;42.702;23.178;2022-12-29T06:36:52;33.60;;;27.07;;
11010;SDS011;5558;42.702;23.178;2022-12-29T06:39:19;50.40;;;40.37;;
11010;SDS011;5558;42.702;23.178;2022-12-29T06:41:46;34.87;;;29.17;;
11010;SDS011;5558;42.702;23.178;2022-12-29T06:44:12;28.97;;;25.10;;
11010;SDS011;5558;42.702;23.178;2022-12-29T06:46:39;22.53;;;19.47;;
11010;SDS011;5558;42.702;23.178;2022-12-29T06:49:06;19.30;;;17.20;;
11010;SDS011;5558;42.702;23.178;2022-12-29T06:51:32;19.67;;;17.27;;
11010;SDS011;5558;42.702;23.178;2022-12-29T06:54:00;22.07;;;18.47;;
11010;SDS011;5558;42.702;23.178;2022-12-29T06:56:27;25.60;;;22.80;;
11010;SDS011;5558;42.702;23.178;2022-12-29T06:58:54;21.20;;;18.10;;
11010;SDS011;5558;42.702;23.178;2022-12-29T07:01:20;22.27;;;18.03;;
11010;SDS011;5558;42.702;23.178;2022-12-29T07:03:47;23.47;;;19.77;;
11010;SDS011;5558;42.702;23.178;2022-12-29T07:06:14;48.87;;;40.97;;
11010;SDS011;5558;42.702;23.178;2022-12-29T07:08:41;31.27;;;27.23;;
11010;SDS011;5558;42.702;23.178;2022-12-29T07:11:09;25.80;;;21.63;;
11010;SDS011;5558;42.702;23.178;2022-12-29T07:13:35;21.27;;;18.03;;
11010;SDS011;5558;42.702;23.178;2022-12-29T07:16:04;19.77;;;17.30;;
11010;SDS011;5558;42.702;23.178;2022-12-29T07:18:32;20.63;;;17.93;;
11010;SDS011;5558;42.702;23.178;2022-12-29T07:20:59;21.67;;;17.93;;
11010;SDS011;5558;42.702;23.178;2022-12-29T07:23:25;21.77;;;18.50;;
11010;SDS011;5558;42.702;23.178;2022-12-29T07:25:58;23.10;;;18.83;;
11010;SDS011;5558;42.702;23.178;2022-12-29T07:28:26;24.67;;;20.30;;
11010;SDS011;5558;42.702;23.178;2022-12-29T07:30:53;24.13;;;19.37;;
11010;SDS011;5558;42.702;23.178;2022-12-29T07:33:20;22.80;;;19.33;;
11010;SDS011;5558;42.702;23.178;2022-12-29T07:35:47;22.17;;;19.17;;
11010;SDS011;5558;42.702;23.178;2022-12-29T07:38:13;21.47;;;17.83;;
11010;SDS011;5558;42.702;23.178;2022-12-29T07:40:41;23.07;;;19.67;;
11010;SDS011;5558;42.702;23.178;2022-12-29T07:43:08;25.20;;;20.87;;
11010;SDS011;5558;42.702;23.178;2022-12-29T07:45:36;24.30;;;20.57;;
11010;SDS011;5558;42.702;23.178;2022-12-29T07:48:03;26.23;;;21.23;;
11010;SDS011;5558;42.702;23.178;2022-12-29T07:50:32;24.07;;;20.37;;
11010;SDS011;5558;42.702;23.178;2022-12-29T07:52:59;24.87;;;19.90;;
11010;SDS011;5558;42.702;23.178;2022-12-29T07:55:26;23.40;;;20.20;;
11010;SDS011;5558;42.702;23.178;2022-12-29T07:57:53;23.87;;;20.30;;
11010;SDS011;5558;42.702;23.178;2022-12-29T08:00:20;26.43;;;21.37;;
11010;SDS011;5558;42.702;23.178;2022-12-29T08:02:48;23.57;;;20.97;;
11010;SDS011;5558;42.702;23.178;2022-12-29T08:05:15;28.50;;;23.57;;
11010;SDS011;5558;42.702;23.178;2022-12-29T08:07:42;27.93;;;23.47;;
11010;SDS011;5558;42.702;23.178;2022-12-29T08:10:09;28.27;;;23.60;;
11010;SDS011;5558;42.702;23.178;2022-12-29T08:12:37;27.47;;;23.37;;
11010;SDS011;5558;42.702;23.178;2022-12-29T08:15:05;28.07;;;23.50;;
11010;SDS011;5558;42.702;23.178;2022-12-29T08:17:33;25.47;;;22.13;;
11010;SDS011;5558;42.702;23.178;2022-12-29T08:20:01;27.40;;;22.93;;
11010;SDS011;5558;42.702;23.178;2022-12-29T08:22:29;34.63;;;26.67;;
11010;SDS011;5558;42.702;23.178;2022-12-29T08:24:55;28.13;;;22.70;;
11010;SDS011;5558;42.702;23.178;2022-12-29T08:27:22;27.33;;;22.87;;
11010;SDS011;5558;42.702;23.178;2022-12-29T08:29:49;26.33;;;21.87;;
11010;SDS011;5558;42.702;23.178;2022-12-29T08:32:15;25.77;;;21.33;;
11010;SDS011;5558;42.702;23.178;2022-12-29T08:34:42;24.20;;;21.27;;
11010;SDS011;5558;42.702;23.178;2022-12-29T08:37:10;24.57;;;21.23;;
11010;SDS011;5558;42.702;23.178;2022-12-29T08:39:37;26.57;;;21.10;;
11010;SDS011;5558;42.702;23.178;2022-12-29T08:42:04;24.80;;;20.60;;
11010;SDS011;5558;42.702;23.178;2022-12-29T08:44:31;24.77;;;20.07;;
11010;SDS011;5558;42.702;23.178;2022-12-29T08:46:58;24.20;;;20.03;;
11010;SDS011;5558;42.702;23.178;2022-12-29T08:49:24;22.50;;;19.00;;
11010;SDS011;5558;42.702;23.178;2022-12-29T08:51:51;24.57;;;20.27;;
11010;SDS011;5558;42.702;23.178;2022-12-29T08:54:19;23.00;;;18.87;;
11010;SDS011;5558;42.702;23.178;2022-12-29T08:56:46;25.73;;;18.97;;
11010;SDS011;5558;42.702;23.178;2022-12-29T08:59:12;21.63;;;18.10;;
11010;SDS011;5558;42.702;23.178;2022-12-29T09:01:39;21.33;;;17.67;;
11010;SDS011;5558;42.702;23.178;2022-12-29T09:04:06;21.23;;;17.90;;
11010;SDS011;5558;42.702;23.178;2022-12-29T09:06:33;21.37;;;18.30;;
11010;SDS011;5558;42.702;23.178;2022-12-29T09:09:00;22.73;;;18.00;;
11010;SDS011;5558;42.702;23.178;2022-12-29T09:11:28;22.73;;;18.13;;
11010;SDS011;5558;42.702;23.178;2022-12-29T09:13:55;20.40;;;17.57;;
11010;SDS011;5558;42.702;23.178;2022-12-29T09:16:22;19.83;;;17.23;;
11010;SDS011;5558;42.702;23.178;2022-12-29T09:18:50;19.20;;;15.60;;
11010;SDS011;5558;42.702;23.178;2022-12-29T09:21:16;19.27;;;15.90;;
11010;SDS011;5558;42.702;23.178;2022-12-29T09:23:43;18.73;;;15.63;;
11010;SDS011;5558;42.702;23.178;2022-12-29T09:26:10;18.93;;;15.77;;
11010;SDS011;5558;42.702;23.178;2022-12-29T09:28:38;18.07;;;15.47;;
11010;SDS011;5558;42.702;23.178;2022-12-29T09:31:05;17.87;;;15.37;;
11010;SDS011;5558;42.702;23.178;2022-12-29T09:33:32;17.43;;;14.70;;
11010;SDS011;5558;42.702;23.178;2022-12-29T09:35:59;18.83;;;15.60;;
11010;SDS011;5558;42.702;23.178;2022-12-29T09:38:26;19.40;;;16.90;;
11010;SDS011;5558;42.702;23.178;2022-12-29T09:40:54;19.73;;;16.30;;
11010;SDS011;5558;42.702;23.178;2022-12-29T09:46:31;20.00;;;16.73;;
11010;SDS011;5558;42.702;23.178;2022-12-29T09:49:06;20.30;;;17.23;;
11010;SDS011;5558;42.702;23.178;2022-12-29T09:51:43;20.30;;;17.20;;
11010;SDS011;5558;42.702;23.178;2022-12-29T09:54:20;21.33;;;17.60;;
11010;SDS011;5558;42.702;23.178;2022-12-29T09:56:52;20.90;;;17.67;;
11010;SDS011;5558;42.702;23.178;2022-12-29T09:59:22;22.07;;;16.83;;
11010;SDS011;5558;42.702;23.178;2022-12-29T10:01:53;20.87;;;16.47;;
11010;SDS011;5558;42.702;23.178;2022-12-29T10:04:26;24.30;;;17.40;;
11010;SDS011;5558;42.702;23.178;2022-12-29T10:06:54;20.73;;;17.27;;
11010;SDS011;5558;42.702;23.178;2022-12-29T10:09:30;19.90;;;16.23;;
11010;SDS011;5558;42.702;23.178;2022-12-29T10:12:08;18.30;;;15.47;;
11010;SDS011;5558;42.702;23.178;2022-12-29T10:14:52;21.80;;;17.20;;
11010;SDS011;5558;42.702;23.178;2022-12-29T10:17:27;30.70;;;22.43;;
11010;SDS011;5558;42.702;23.178;2022-12-29T10:20:04;23.27;;;17.37;;
11010;SDS011;5558;42.702;23.178;2022-12-29T10:22:45;19.03;;;15.60;;
11010;SDS011;5558;42.702;23.178;2022-12-29T10:25:23;18.07;;;15.43;;
11010;SDS011;5558;42.702;23.178;2022-12-29T10:27:53;51.03;;;31.27;;
11010;SDS011;5558;42.702;23.178;2022-12-29T10:30:25;42.47;;;27.17;;
11010;SDS011;5558;42.702;23.178;2022-12-29T10:32:52;19.87;;;16.20;;
11010;SDS011;5558;42.702;23.178;2022-12-29T10:35:24;19.60;;;15.70;;
11010;SDS011;5558;42.702;23.178;2022-12-29T10:37:53;19.37;;;15.73;;
11010;SDS011;5558;42.702;23.178;2022-12-29T10:40:28;21.27;;;17.20;;
11010;SDS011;5558;42.702;23.178;2022-12-29T10:43:05;22.53;;;17.53;;
11010;SDS011;5558;42.702;23.178;2022-12-29T10:45:42;20.73;;;17.00;;
11010;SDS011;5558;42.702;23.178;2022-12-29T10:48:11;21.03;;;16.73;;
11010;SDS011;5558;42.702;23.178;2022-12-29T10:50:46;20.00;;;16.57;;
11010;SDS011;5558;42.702;23.178;2022-12-29T10:53:15;18.77;;;15.30;;
11010;SDS011;5558;42.702;23.178;2022-12-29T10:55:47;18.97;;;15.20;;
11010;SDS011;5558;42.702;23.178;2022-12-29T10:58:15;20.00;;;16.47;;
11010;SDS011;5558;42.702;23.178;2022-12-29T11:00:47;21.20;;;15.87;;
11010;SDS011;5558;42.702;23.178;2022-12-29T11:06:12;17.43;;;14.97;;
11010;SDS011;5558;42.702;23.178;2022-12-29T11:08:45;16.63;;;14.63;;
11010;SDS011;5558;42.702;23.178;2022-12-29T11:11:24;17.87;;;14.53;;
11010;SDS011;5558;42.702;23.178;2022-12-29T11:13:56;20.00;;;15.90;;
11010;SDS011;5558;42.702;23.178;2022-12-29T11:16:29;18.37;;;14.77;;
11010;SDS011;5558;42.702;23.178;2022-12-29T11:18:57;18.53;;;15.67;;
11010;SDS011;5558;42.702;23.178;2022-12-29T11:21:26;19.03;;;15.73;;
11010;SDS011;5558;42.702;23.178;2022-12-29T11:23:57;23.67;;;16.10;;
11010;SDS011;5558;42.702;23.178;2022-12-29T11:26:26;19.70;;;15.70;;
11010;SDS011;5558;42.702;23.178;2022-12-29T11:29:08;21.37;;;16.93;;
11010;SDS011;5558;42.702;23.178;2022-12-29T11:31:45;20.33;;;17.13;;
11010;SDS011;5558;42.702;23.178;2022-12-29T11:34:16;20.20;;;16.90;;
11010;SDS011;5558;42.702;23.178;2022-12-29T11:36:45;20.60;;;16.33;;
11010;SDS011;5558;42.702;23.178;2022-12-29T11:39:27;20.73;;;16.30;;
11010;SDS011;5558;42.702;23.178;2022-12-29T11:41:57;19.53;;;15.70;;
11010;SDS011;5558;42.702;23.178;2022-12-29T11:44:24;19.47;;;15.83;;
11010;SDS011;5558;42.702;23.178;2022-12-29T11:46:54;22.63;;;18.57;;
11010;SDS011;5558;42.702;23.178;2022-12-29T11:49:21;22.43;;;17.07;;
11010;SDS011;5558;42.702;23.178;2022-12-29T11:51:51;25.47;;;18.40;;
11010;SDS011;5558;42.702;23.178;2022-12-29T11:54:22;26.73;;;19.40;;
11010;SDS011;5558;42.702;23.178;2022-12-29T11:56:51;21.83;;;17.47;;
11010;SDS011;5558;42.702;23.178;2022-12-29T11:59:24;19.80;;;16.30;;
11010;SDS011;5558;42.702;23.178;2022-12-29T12:02:15;20.03;;;17.10;;
11010;SDS011;5558;42.702;23.178;2022-12-29T12:05:09;20.67;;;16.20;;
11010;SDS011;5558;42.702;23.178;2022-12-29T12:07:40;20.73;;;16.60;;
11010;SDS011;5558;42.702;23.178;2022-12-29T12:10:16;20.77;;;16.50;;
11010;SDS011;5558;42.702;23.178;2022-12-29T12:12:49;19.97;;;16.10;;
11010;SDS011;5558;42.702;23.178;2022-12-29T12:15:20;20.87;;;16.13;;
11010;SDS011;5558;42.702;23.178;2022-12-29T12:17:54;22.57;;;16.97;;
11010;SDS011;5558;42.702;23.178;2022-12-29T12:20:27;21.93;;;17.30;;
11010;SDS011;5558;42.702;23.178;2022-12-29T12:23:06;20.40;;;16.70;;
11010;SDS011;5558;42.702;23.178;2022-12-29T12:25:46;20.47;;;16.77;;
11010;SDS011;5558;42.702;23.178;2022-12-29T12:28:19;19.93;;;16.77;;
11010;SDS011;5558;42.702;23.178;2022-12-29T12:30:53;20.83;;;16.70;;
11010;SDS011;5558;42.702;23.178;2022-12-29T12:33:26;21.03;;;16.63;;
11010;SDS011;5558;42.702;23.178;2022-12-29T12:36:04;20.57;;;16.10;;
11010;SDS011;5558;42.702;23.178;2022-12-29T12:38:48;20.33;;;16.13;;
11010;SDS011;5558;42.702;23.178;2022-12-29T12:41:22;19.13;;;15.73;;
11010;SDS011;5558;42.702;23.178;2022-12-29T12:44:00;21.90;;;17.67;;
11010;SDS011;5558;42.702;23.178;2022-12-29T12:46:37;21.20;;;16.50;;
11010;SDS011;5558;42.702;23.178;2022-12-29T12:52:41;23.73;;;17.80;;
11010;SDS011;5558;42.702;23.178;2022-12-29T12:55:22;21.60;;;17.47;;
11010;SDS011;5558;42.702;23.178;2022-12-29T12:58:02;20.77;;;16.87;;
11010;SDS011;5558;42.702;23.178;2022-12-29T13:00:36;22.87;;;18.10;;
11010;SDS011;5558;42.702;23.178;2022-12-29T13:03:16;21.47;;;16.83;;
11010;SDS011;5558;42.702;23.178;2022-12-29T13:06:01;21.03;;;16.20;;
11010;SDS011;5558;42.702;23.178;2022-12-29T13:11:49;19.40;;;15.67;;
11010;SDS011;5558;42.702;23.178;2022-12-29T13:14:27;20.27;;;14.97;;
11010;SDS011;5558;42.702;23.178;2022-12-29T13:17:05;19.63;;;15.50;;
11010;SDS011;5558;42.702;23.178;2022-12-29T13:19:39;18.33;;;14.83;;
11010;SDS011;5558;42.702;23.178;2022-12-29T13:22:13;20.53;;;15.43;;
11010;SDS011;5558;42.702;23.178;2022-12-29T13:24:50;20.20;;;16.00;;
11010;SDS011;5558;42.702;23.178;2022-12-29T13:27:29;23.10;;;17.00;;
11010;SDS011;5558;42.702;23.178;2022-12-29T13:30:04;18.60;;;15.43;;
11010;SDS011;5558;42.702;23.178;2022-12-29T13:32:39;19.43;;;15.50;;
11010;SDS011;5558;42.702;23.178;2022-12-29T13:35:19;19.60;;;15.60;;
11010;SDS011;5558;42.702;23.178;2022-12-29T13:38:07;20.03;;;15.53;;
11010;SDS011;5558;42.702;23.178;2022-12-29T13:40:41;18.80;;;14.97;;
11010;SDS011;5558;42.702;23.178;2022-12-29T13:43:11;17.73;;;14.30;;
11010;SDS011;5558;42.702;23.178;2022-12-29T13:45:40;18.00;;;14.47;;
11010;SDS011;5558;42.702;23.178;2022-12-29T13:48:09;18.03;;;14.67;;
11010;SDS011;5558;42.702;23.178;2022-12-29T13:50:43;18.70;;;15.33;;
11010;SDS011;5558;42.702;23.178;2022-12-29T13:53:15;20.23;;;16.50;;
11010;SDS011;5558;42.702;23.178;2022-12-29T13:55:53;25.97;;;16.93;;
11010;SDS011;5558;42.702;23.178;2022-12-29T13:58:25;22.07;;;17.40;;
11010;SDS011;5558;42.702;23.178;2022-12-29T14:00:59;25.70;;;18.73;;
11010;SDS011;5558;42.702;23.178;2022-12-29T14:03:39;25.13;;;18.37;;
11010;SDS011;5558;42.702;23.178;2022-12-29T14:06:15;25.50;;;18.67;;
11010;SDS011;5558;42.702;23.178;2022-12-29T14:08:45;41.77;;;29.57;;
11010;SDS011;5558;42.702;23.178;2022-12-29T14:11:15;45.60;;;32.43;;
11010;SDS011;5558;42.702;23.178;2022-12-29T14:13:44;44.73;;;33.33;;
11010;SDS011;5558;42.702;23.178;2022-12-29T14:16:22;25.53;;;20.37;;
11010;SDS011;5558;42.702;23.178;2022-12-29T14:18:52;26.03;;;20.40;;
11010;SDS011;5558;42.702;23.178;2022-12-29T14:21:22;26.30;;;20.40;;
11010;SDS011;5558;42.702;23.178;2022-12-29T14:23:57;44.03;;;32.27;;
11010;SDS011;5558;42.702;23.178;2022-12-29T14:33:24;24.07;;;18.83;;
11010;SDS011;5558;42.702;23.178;2022-12-29T14:35:52;24.43;;;19.27;;
11010;SDS011;5558;42.702;23.178;2022-12-29T14:38:29;27.83;;;22.23;;
11010;SDS011;5558;42.702;23.178;2022-12-29T14:44:09;26.93;;;20.07;;
11010;SDS011;5558;42.702;23.178;2022-12-29T14:46:44;24.83;;;18.87;;
11010;SDS011;5558;42.702;23.178;2022-12-29T14:49:15;24.13;;;19.17;;
11010;SDS011;5558;42.702;23.178;2022-12-29T14:51:45;22.93;;;17.87;;
11010;SDS011;5558;42.702;23.178;2022-12-29T14:57:11;24.13;;;18.87;;
11010;SDS011;5558;42.702;23.178;2022-12-29T14:59:47;24.37;;;18.67;;
11010;SDS011;5558;42.702;23.178;2022-12-29T15:02:19;25.40;;;19.13;;
11010;SDS011;5558;42.702;23.178;2022-12-29T15:04:49;24.23;;;18.97;;
11010;SDS011;5558;42.702;23.178;2022-12-29T15:07:17;22.63;;;18.30;;
11010;SDS011;5558;42.702;23.178;2022-12-29T15:09:46;22.83;;;18.00;;
11010;SDS011;5558;42.702;23.178;2022-12-29T15:12:20;25.20;;;19.83;;
11010;SDS011;5558;42.702;23.178;2022-12-29T15:14:58;27.60;;;20.53;;
11010;SDS011;5558;42.702;23.178;2022-12-29T15:17:26;26.60;;;20.83;;